Time;durP1;ratioP1;P1;durP2;ratioP2;P2;SDS_P1;SDS_P2;PMS_P1;PMS_P2;Temp;Humidity;BMP_temperature;BMP_pressure;BME280_temperature;BME280_humidity;BME280_pressure;Samples;Min_cycle;Max_cycle;Signal;HPM_P1;HPM_P2
2022/12/30 00:02:06;;;;;;;20.40;4.65;;;6.20;99.90;;;;;;5058267;28;20430;-67
2022/12/30 00:04:32;;;;;;;27.73;4.85;;;6.30;99.90;;;;;;5049077;28;20120;-68
2022/12/30 00:07:00;;;;;;;20.13;4.55;;;6.20;99.90;;;;;;5052257;28;20889;-69
2022/12/30 00:09:27;;;;;;;18.55;4.72;;;6.20;99.90;;;;;;5048225;28;20053;-67
2022/12/30 00:11:52;;;;;;;22.80;4.97;;;6.20;99.90;;;;;;5064841;28;20055;-67
2022/12/30 00:34:00;;;;;;;24.98;5.38;;;6.00;99.90;;;;;;5045614;28;20083;-67
2022/12/30 00:36:27;;;;;;;23.20;4.55;;;6.00;99.90;;;;;;5048799;28;20123;-67
2022/12/30 00:38:53;;;;;;;14.38;4.50;;;6.00;99.90;;;;;;5042980;28;20083;-67
2022/12/30 00:44:03;;;;;;;19.33;4.43;;;5.90;99.90;;;;;;5040816;28;20061;-67
2022/12/30 00:46:30;;;;;;;27.70;4.43;;;6.00;99.90;;;;;;5045270;28;20048;-67
2022/12/30 00:57:08;;;;;;;20.73;4.30;;;5.90;99.90;;;;;;5049785;28;20091;-67
2022/12/30 00:59:34;;;;;;;25.25;4.70;;;5.80;99.90;;;;;;5053427;28;20045;-68
2022/12/30 01:02:00;;;;;;;22.13;4.47;;;5.80;99.90;;;;;;5051311;28;20051;-67
2022/12/30 01:04:25;;;;;;;22.52;5.55;;;5.80;99.90;;;;;;5054106;28;20045;-68
2022/12/30 01:06:51;;;;;;;19.63;4.85;;;5.80;99.90;;;;;;5052372;28;20037;-68
2022/12/30 01:09:16;;;;;;;22.27;4.40;;;5.80;99.90;;;;;;5055828;28;20045;-67
2022/12/30 01:11:42;;;;;;;23.60;4.50;;;5.80;99.90;;;;;;5053183;28;20040;-68
2022/12/30 01:14:08;;;;;;;31.58;6.32;;;5.80;99.90;;;;;;5053211;28;20824;-67
2022/12/30 01:16:33;;;;;;;24.05;4.93;;;5.80;99.90;;;;;;5036172;28;20045;-67
2022/12/30 01:18:59;;;;;;;27.88;5.55;;;5.70;99.90;;;;;;5053328;28;20041;-67
2022/12/30 01:21:25;;;;;;;20.23;4.25;;;5.60;99.90;;;;;;5053654;28;20561;-68
2022/12/30 01:23:51;;;;;;;31.50;4.72;;;5.60;99.90;;;;;;5053094;28;20044;-74
2022/12/30 01:26:16;;;;;;;23.35;5.00;;;5.60;99.90;;;;;;5053526;28;20059;-68
2022/12/30 01:28:43;;;;;;;26.60;5.90;;;5.60;99.90;;;;;;5055080;28;20048;-68
2022/12/30 01:31:11;;;;;;;23.35;4.63;;;5.60;99.90;;;;;;5063796;28;20099;-67
2022/12/30 01:33:37;;;;;;;21.13;4.95;;;5.60;99.90;;;;;;5052554;28;20166;-67
2022/12/30 01:36:04;;;;;;;26.08;4.90;;;5.50;99.90;;;;;;5052768;28;20041;-67
2022/12/30 01:38:31;;;;;;;21.25;4.68;;;5.50;99.90;;;;;;5035598;28;20469;-67
2022/12/30 01:40:58;;;;;;;26.40;5.47;;;5.50;99.90;;;;;;5059274;28;20056;-67
2022/12/30 01:43:50;;;;;;;24.90;4.82;;;5.50;99.90;;;;;;5050811;28;20053;-68
2022/12/30 01:46:23;;;;;;;31.63;5.47;;;5.50;99.90;;;;;;5033668;28;20126;-67
2022/12/30 01:48:50;;;;;;;33.28;5.15;;;5.50;99.90;;;;;;5082038;28;20109;-68
2022/12/30 01:51:26;;;;;;;19.17;4.75;;;5.50;99.90;;;;;;5053714;28;20061;-66
2022/12/30 01:53:54;;;;;;;24.20;5.28;;;5.50;99.90;;;;;;5051712;28;20497;-66
2022/12/30 01:56:40;;;;;;;23.52;4.25;;;5.50;99.90;;;;;;5052456;28;20045;-66
2022/12/30 01:59:13;;;;;;;21.88;4.25;;;5.40;99.90;;;;;;5054946;28;20057;-66
2022/12/30 02:01:39;;;;;;;19.00;4.13;;;5.40;99.90;;;;;;5051132;28;20571;-67
2022/12/30 02:04:09;;;;;;;22.42;4.40;;;5.50;99.90;;;;;;5034178;28;20048;-66
2022/12/30 02:06:52;;;;;;;24.52;4.20;;;5.50;99.90;;;;;;5052426;28;20033;-66
2022/12/30 02:09:19;;;;;;;23.27;4.70;;;5.40;99.90;;;;;;5049126;28;20095;-66
2022/12/30 02:11:44;;;;;;;20.05;4.63;;;5.50;99.90;;;;;;5062495;28;20060;-69
2022/12/30 02:14:10;;;;;;;22.30;5.00;;;5.50;99.90;;;;;;5052240;28;20037;-67
2022/12/30 02:17:02;;;;;;;23.15;3.45;;;5.50;99.90;;;;;;5052383;28;20049;-67
2022/12/30 02:19:39;;;;;;;20.88;4.88;;;5.50;99.90;;;;;;5052565;28;20111;-67
2022/12/30 02:22:12;;;;;;;22.88;4.70;;;5.50;99.90;;;;;;5051872;28;20098;-69
2022/12/30 02:25:27;;;;;;;22.33;4.90;;;5.50;99.90;;;;;;5052695;28;20140;-68
2022/12/30 02:28:15;;;;;;;20.52;5.03;;;5.50;99.90;;;;;;5048299;28;20119;-67
2022/12/30 02:30:57;;;;;;;19.83;4.68;;;5.50;99.90;;;;;;5052384;28;20561;-68
2022/12/30 02:33:37;;;;;;;21.27;4.53;;;5.50;99.90;;;;;;5057058;28;20045;-68
2022/12/30 02:36:19;;;;;;;27.70;6.07;;;5.50;99.90;;;;;;5050192;28;20380;-74
2022/12/30 02:39:02;;;;;;;18.95;4.80;;;5.60;99.90;;;;;;5050753;28;20049;-67
2022/12/30 02:44:36;;;;;;;26.33;4.45;;;5.50;99.90;;;;;;5016932;28;20522;-66
2022/12/30 02:47:20;;;;;;;20.52;4.43;;;5.60;99.90;;;;;;5011116;28;20132;-67
2022/12/30 02:52:45;;;;;;;28.65;5.07;;;5.60;99.90;;;;;;5012082;28;20065;-67
2022/12/30 02:55:11;;;;;;;30.13;5.55;;;5.60;99.90;;;;;;5010595;28;20058;-66
2022/12/30 02:57:37;;;;;;;19.15;4.55;;;5.50;99.90;;;;;;5011913;28;20044;-67
2022/12/30 03:06:10;;;;;;;22.23;4.68;;;5.50;99.90;;;;;;5012046;28;20053;-67
2022/12/30 03:08:51;;;;;;;20.63;4.70;;;5.50;99.90;;;;;;5010309;28;20051;-67
2022/12/30 03:11:17;;;;;;;29.13;5.70;;;5.50;99.90;;;;;;5010277;28;20056;-67
2022/12/30 03:14:06;;;;;;;19.27;3.90;;;5.50;99.90;;;;;;5010475;28;20077;-68
2022/12/30 03:16:42;;;;;;;20.02;4.35;;;5.50;99.90;;;;;;5010170;28;20093;-67
2022/12/30 03:19:13;;;;;;;25.67;4.68;;;5.50;99.90;;;;;;5010909;28;20042;-74
2022/12/30 03:21:41;;;;;;;26.27;4.32;;;5.40;99.90;;;;;;5043808;28;20092;-67
2022/12/30 03:27:04;;;;;;;24.58;4.35;;;5.40;99.90;;;;;;5016087;28;20149;-67
2022/12/30 03:29:49;;;;;;;22.55;5.00;;;5.40;99.90;;;;;;5009488;28;20505;-67
2022/12/30 03:32:16;;;;;;;28.52;4.63;;;5.40;99.90;;;;;;5010921;28;20443;-69
2022/12/30 03:34:42;;;;;;;19.75;4.95;;;5.40;99.90;;;;;;5010352;28;20078;-67
2022/12/30 03:37:17;;;;;;;23.23;4.97;;;5.40;99.90;;;;;;5042944;28;20121;-68
2022/12/30 03:39:55;;;;;;;;;;;5.40;99.90;;;;;;5010569;28;20099;-67
2022/12/30 03:42:21;;;;;;;27.92;5.80;;;5.40;99.90;;;;;;5023140;28;20259;-66
2022/12/30 03:44:48;;;;;;;28.27;5.53;;;5.30;99.90;;;;;;5050567;28;20053;-66
2022/12/30 03:47:16;;;;;;;21.25;4.28;;;5.30;99.90;;;;;;5082250;28;20045;-72
2022/12/30 03:49:43;;;;;;;30.38;5.72;;;5.30;99.90;;;;;;5050941;28;20045;-66
2022/12/30 03:52:14;;;;;;;19.83;4.38;;;5.30;99.90;;;;;;5050332;28;20045;-66
2022/12/30 03:54:42;;;;;;;33.45;5.25;;;5.20;99.90;;;;;;5050126;28;20044;-69
2022/12/30 03:57:09;;;;;;;19.42;4.93;;;5.20;99.90;;;;;;5054552;28;20041;-67
2022/12/30 03:59:34;;;;;;;20.08;5.13;;;5.30;99.90;;;;;;5050022;28;20114;-66
2022/12/30 04:02:00;;;;;;;26.02;5.18;;;5.30;99.90;;;;;;5050782;28;20697;-67
2022/12/30 04:04:26;;;;;;;22.13;4.20;;;5.20;99.90;;;;;;5048536;28;20060;-65
2022/12/30 04:06:52;;;;;;;21.95;4.97;;;5.10;99.90;;;;;;5051123;28;20045;-66
2022/12/30 04:09:18;;;;;;;27.45;5.32;;;5.10;99.90;;;;;;5049993;28;20037;-71
2022/12/30 04:11:44;;;;;;;24.17;5.40;;;5.10;99.90;;;;;;5050194;28;20041;-66
2022/12/30 04:14:10;;;;;;;23.08;5.38;;;5.20;99.90;;;;;;5050581;28;20061;-66
2022/12/30 04:16:36;;;;;;;26.20;4.60;;;5.10;99.90;;;;;;5049792;28;20095;-68
2022/12/30 04:19:02;;;;;;;21.98;4.72;;;5.10;99.90;;;;;;5050454;28;20076;-66
2022/12/30 04:21:28;;;;;;;24.85;5.35;;;5.10;99.90;;;;;;5048237;28;20109;-67
2022/12/30 04:23:53;;;;;;;18.45;4.50;;;5.10;99.90;;;;;;5049606;28;20041;-72
2022/12/30 04:26:19;;;;;;;23.00;5.25;;;5.10;99.90;;;;;;5050209;28;20045;-75
2022/12/30 04:28:45;;;;;;;21.63;5.40;;;5.30;99.90;;;;;;5062457;28;20045;-67
2022/12/30 04:31:10;;;;;;;28.80;5.38;;;5.10;99.90;;;;;;5050359;28;20063;-66
2022/12/30 04:33:36;;;;;;;21.38;5.18;;;5.10;99.90;;;;;;5031461;28;20045;-66
2022/12/30 04:36:03;;;;;;;28.60;5.60;;;5.10;99.90;;;;;;5052669;28;20056;-67
2022/12/30 04:38:28;;;;;;;18.35;5.45;;;5.10;99.90;;;;;;5053526;28;20051;-67
2022/12/30 04:40:54;;;;;;;27.10;6.03;;;5.10;99.90;;;;;;5054036;28;20048;-65
2022/12/30 04:43:20;;;;;;;19.17;5.65;;;5.20;99.90;;;;;;5052364;28;20127;-74
2022/12/30 04:45:45;;;;;;;17.70;5.15;;;5.20;99.90;;;;;;5053043;28;20103;-67
2022/12/30 04:48:11;;;;;;;19.67;5.40;;;5.30;99.90;;;;;;5055360;28;20517;-67
2022/12/30 04:50:41;;;;;;;20.05;5.28;;;5.30;99.90;;;;;;5056297;28;20044;-68
2022/12/30 04:53:07;;;;;;;23.48;5.53;;;5.30;99.90;;;;;;5054215;28;20049;-67
2022/12/30 04:55:33;;;;;;;17.40;4.78;;;5.40;99.90;;;;;;5053427;28;20505;-67
2022/12/30 04:57:58;;;;;;;25.38;6.13;;;5.40;99.90;;;;;;5053811;28;20048;-70
2022/12/30 05:00:24;;;;;;;21.80;5.40;;;5.30;99.90;;;;;;5080935;28;20072;-74
2022/12/30 05:02:50;;;;;;;19.25;4.15;;;5.30;99.90;;;;;;5049550;28;20046;-70
2022/12/30 05:05:16;;;;;;;24.58;4.57;;;5.30;99.90;;;;;;5046417;28;21028;-68
2022/12/30 05:07:41;;;;;;;19.60;5.45;;;5.30;99.90;;;;;;5048756;28;20043;-68
2022/12/30 05:10:07;;;;;;;17.92;5.57;;;5.30;99.90;;;;;;5052374;28;20506;-68
2022/12/30 05:12:33;;;;;;;18.33;5.35;;;5.30;99.90;;;;;;5052606;28;20068;-66
2022/12/30 05:14:59;;;;;;;21.35;4.90;;;5.30;99.90;;;;;;5049043;28;20112;-66
2022/12/30 05:17:24;;;;;;;21.92;5.10;;;5.30;99.90;;;;;;5066774;28;20430;-72
2022/12/30 05:19:50;;;;;;;21.70;5.72;;;5.30;99.90;;;;;;5051459;28;20051;-66
2022/12/30 05:22:16;;;;;;;26.83;5.93;;;5.40;99.90;;;;;;5045614;28;20049;-67
2022/12/30 05:27:25;;;;;;;21.95;6.28;;;5.30;99.90;;;;;;5046101;28;20175;-68
2022/12/30 05:29:51;;;;;;;22.50;5.90;;;5.40;99.90;;;;;;5054093;28;20124;-66
2022/12/30 05:32:17;;;;;;;24.10;6.70;;;5.40;99.90;;;;;;5046710;28;20525;-66
2022/12/30 05:34:42;;;;;;;20.95;6.63;;;5.40;99.90;;;;;;5038512;28;20140;-66
2022/12/30 05:37:08;;;;;;;30.63;6.93;;;5.40;99.90;;;;;;5065792;28;20057;-66
2022/12/30 05:39:34;;;;;;;20.98;6.88;;;5.40;99.90;;;;;;5047364;28;20371;-66
2022/12/30 05:41:59;;;;;;;18.00;7.40;;;5.50;99.90;;;;;;5079859;28;20049;-66
2022/12/30 05:44:25;;;;;;;22.88;7.63;;;5.50;99.90;;;;;;5051160;28;20064;-65
2022/12/30 05:46:52;;;;;;;25.30;8.85;;;5.50;99.90;;;;;;5043058;28;20044;-66
2022/12/30 05:49:17;;;;;;;23.35;7.53;;;5.40;99.90;;;;;;5039138;28;20120;-67
2022/12/30 05:51:43;;;;;;;21.88;6.82;;;5.40;99.90;;;;;;5048280;28;20170;-66
2022/12/30 05:54:09;;;;;;;20.67;6.80;;;5.50;99.90;;;;;;5065442;28;20049;-66
2022/12/30 05:56:35;;;;;;;25.15;7.20;;;5.40;99.90;;;;;;5045019;28;20054;-66
2022/12/30 05:59:00;;;;;;;24.98;7.70;;;5.40;99.90;;;;;;5043597;28;20080;-65
2022/12/30 06:01:26;;;;;;;15.35;6.65;;;5.70;99.90;;;;;;5041690;28;20063;-67
2022/12/30 06:03:56;;;;;;;21.50;7.47;;;5.40;99.90;;;;;;5042365;28;20037;-66
2022/12/30 06:06:22;;;;;;;14.90;6.22;;;5.50;99.90;;;;;;5047647;28;20041;-66
2022/12/30 06:08:48;;;;;;;23.90;7.13;;;5.40;99.90;;;;;;5041034;28;20056;-66
2022/12/30 06:11:13;;;;;;;17.88;6.82;;;5.40;99.90;;;;;;5059579;28;20045;-67
2022/12/30 06:13:39;;;;;;;21.05;7.28;;;5.40;99.90;;;;;;5050572;28;20045;-66
2022/12/30 06:16:05;;;;;;;16.42;5.95;;;5.40;99.90;;;;;;5051453;28;20435;-66
2022/12/30 06:18:31;;;;;;;19.13;7.22;;;5.30;99.90;;;;;;5051423;28;20550;-70
2022/12/30 06:20:57;;;;;;;24.48;5.93;;;5.30;99.90;;;;;;5051089;28;20057;-66
2022/12/30 06:23:23;;;;;;;17.60;6.03;;;5.20;99.90;;;;;;5048057;28;20128;-67
2022/12/30 06:25:54;;;;;;;18.52;7.13;;;5.20;99.90;;;;;;5036746;28;20099;-67
2022/12/30 06:28:20;;;;;;;18.25;5.30;;;5.20;99.90;;;;;;5041625;28;20056;-66
2022/12/30 06:30:46;;;;;;;13.27;5.05;;;5.10;99.90;;;;;;5040189;28;20072;-67
2022/12/30 06:33:12;;;;;;;35.70;6.57;;;5.10;99.90;;;;;;5042522;28;20051;-67
2022/12/30 06:35:38;;;;;;;13.57;4.05;;;5.10;99.90;;;;;;5029774;28;20125;-74
2022/12/30 06:38:03;;;;;;;16.23;4.70;;;5.00;99.90;;;;;;5037392;28;20121;-66
2022/12/30 06:40:29;;;;;;;17.45;5.28;;;5.00;99.90;;;;;;5042900;28;20045;-66
2022/12/30 06:42:55;;;;;;;17.08;4.78;;;5.00;99.90;;;;;;4997114;28;1100984;-66
2022/12/30 06:45:20;;;;;;;21.60;5.25;;;5.00;99.90;;;;;;5076316;28;20103;-66
2022/12/30 06:47:46;;;;;;;13.40;4.50;;;5.00;99.90;;;;;;5038366;28;20053;-66
2022/12/30 06:50:12;;;;;;;14.65;4.60;;;4.90;99.90;;;;;;5040342;28;20487;-66
2022/12/30 06:52:38;;;;;;;19.20;4.70;;;4.80;99.90;;;;;;5049936;28;20049;-66
2022/12/30 06:55:04;;;;;;;17.08;4.85;;;4.80;99.90;;;;;;5042002;28;20142;-67
2022/12/30 06:57:30;;;;;;;15.93;4.15;;;4.80;99.90;;;;;;5043892;28;20142;-66
2022/12/30 06:59:56;;;;;;;12.18;3.42;;;4.80;99.90;;;;;;5036923;28;20088;-66
2022/12/30 07:02:21;;;;;;;19.98;4.70;;;4.80;99.90;;;;;;5052654;28;20039;-65
2022/12/30 07:04:47;;;;;;;14.82;3.97;;;4.80;99.90;;;;;;5040067;28;20520;-67
2022/12/30 07:07:13;;;;;;;11.13;3.47;;;4.80;99.90;;;;;;5046850;28;20079;-67
2022/12/30 07:09:39;;;;;;;13.18;3.95;;;4.70;99.90;;;;;;5051265;28;20052;-66
2022/12/30 07:12:04;;;;;;;16.63;4.43;;;4.80;99.90;;;;;;5054884;28;20383;-66
2022/12/30 07:14:30;;;;;;;13.38;3.47;;;4.70;99.90;;;;;;5060415;28;20053;-66
2022/12/30 07:16:56;;;;;;;15.70;3.42;;;4.80;99.90;;;;;;5047695;28;20047;-66
2022/12/30 07:19:21;;;;;;;20.05;4.80;;;4.80;99.90;;;;;;5051286;28;20041;-66
2022/12/30 07:21:47;;;;;;;14.20;3.92;;;4.80;99.90;;;;;;5049362;28;20152;-67
2022/12/30 07:24:13;;;;;;;16.08;4.45;;;4.80;99.90;;;;;;5051368;28;20102;-66
2022/12/30 07:26:38;;;;;;;13.88;3.55;;;4.80;99.90;;;;;;5041407;28;20478;-66
2022/12/30 07:29:04;;;;;;;14.10;3.45;;;4.80;99.90;;;;;;5042887;28;20036;-72
2022/12/30 07:31:30;;;;;;;19.60;4.70;;;4.80;99.90;;;;;;5039622;28;20072;-68
2022/12/30 07:33:56;;;;;;;16.73;4.00;;;4.80;99.90;;;;;;5032963;28;20415;-68
2022/12/30 07:36:21;;;;;;;15.57;4.07;;;4.80;99.90;;;;;;5050219;28;20048;-67
2022/12/30 07:38:47;;;;;;;20.73;5.05;;;4.80;99.90;;;;;;5026626;28;20040;-75
2022/12/30 07:41:13;;;;;;;12.43;3.30;;;4.80;99.90;;;;;;5048363;28;20049;-67
2022/12/30 07:43:38;;;;;;;18.23;3.75;;;4.80;99.90;;;;;;5051052;28;20060;-68
2022/12/30 07:46:09;;;;;;;15.07;4.05;;;4.90;99.90;;;;;;5032071;28;20044;-67
2022/12/30 07:48:36;;;;;;;14.35;4.10;;;4.80;99.90;;;;;;5047971;28;20436;-67
2022/12/30 07:51:11;;;;;;;16.27;3.75;;;4.80;99.90;;;;;;5045001;28;20059;-67
2022/12/30 07:53:36;;;;;;;14.38;3.92;;;4.80;99.90;;;;;;5043890;28;20099;-67
2022/12/30 07:56:07;;;;;;;20.20;4.47;;;4.70;99.90;;;;;;5061062;28;20072;-67
2022/12/30 07:58:34;;;;;;;19.05;4.15;;;4.80;99.90;;;;;;5047786;28;20037;-67
2022/12/30 08:01:17;;;;;;;18.90;4.05;;;4.70;99.90;;;;;;5045663;28;20048;-67
2022/12/30 08:03:43;;;;;;;13.18;4.38;;;4.80;99.90;;;;;;5044424;28;20128;-66
2022/12/30 08:06:15;;;;;;;10.80;2.88;;;4.80;99.90;;;;;;5043304;28;20144;-67
2022/12/30 08:08:41;;;;;;;17.15;4.03;;;4.80;99.90;;;;;;5047418;28;20061;-67
2022/12/30 08:11:09;;;;;;;13.73;3.33;;;4.80;99.90;;;;;;5075777;28;20120;-67
2022/12/30 08:13:37;;;;;;;16.65;3.78;;;4.80;99.90;;;;;;5044111;28;20045;-69
2022/12/30 08:16:07;;;;;;;15.80;3.95;;;4.90;99.90;;;;;;5043244;28;20064;-67
2022/12/30 08:18:33;;;;;;;14.95;4.03;;;4.90;99.90;;;;;;5080107;28;20037;-67
2022/12/30 08:21:00;;;;;;;15.80;4.60;;;4.80;99.90;;;;;;5042709;28;20545;-67
2022/12/30 08:23:28;;;;;;;14.88;3.92;;;4.90;99.90;;;;;;5039292;28;20124;-67
2022/12/30 08:25:53;;;;;;;14.63;3.70;;;4.90;99.90;;;;;;5035098;28;20084;-74
2022/12/30 08:28:19;;;;;;;13.10;3.75;;;4.90;99.90;;;;;;5036053;28;20574;-67
2022/12/30 08:30:45;;;;;;;16.63;4.07;;;4.90;99.90;;;;;;5047247;28;20045;-67
2022/12/30 08:33:10;;;;;;;11.77;3.90;;;5.00;99.90;;;;;;5049925;28;20052;-66
2022/12/30 08:35:36;;;;;;;19.38;3.78;;;5.00;99.90;;;;;;5066016;28;20049;-66
2022/12/30 08:38:02;;;;;;;10.73;3.42;;;5.00;99.90;;;;;;5041021;28;20048;-66
2022/12/30 08:40:27;;;;;;;14.05;4.20;;;5.00;99.90;;;;;;5036283;28;20033;-66
2022/12/30 08:42:53;;;;;;;14.25;3.35;;;5.00;99.90;;;;;;5037047;28;20060;-67
2022/12/30 08:45:19;;;;;;;17.02;4.15;;;5.10;99.90;;;;;;5079981;28;20131;-66
2022/12/30 08:47:44;;;;;;;22.70;4.00;;;5.00;99.90;;;;;;5051962;28;20029;-66
2022/12/30 08:50:10;;;;;;;17.65;3.58;;;5.10;99.90;;;;;;5078037;28;20393;-67
2022/12/30 08:52:37;;;;;;;15.02;3.63;;;5.10;99.90;;;;;;5040822;28;20102;-66
2022/12/30 08:55:03;;;;;;;15.27;3.78;;;5.10;99.90;;;;;;5037449;28;20045;-66
2022/12/30 08:57:28;;;;;;;14.10;3.70;;;5.10;99.90;;;;;;5036433;28;20059;-66
2022/12/30 08:59:54;;;;;;;13.60;3.63;;;5.10;99.90;;;;;;5076674;28;20046;-66
2022/12/30 09:02:20;;;;;;;11.55;3.92;;;5.20;99.90;;;;;;5040898;28;20137;-66
2022/12/30 09:04:45;;;;;;;15.60;4.43;;;5.20;99.90;;;;;;5044449;28;20045;-67
2022/12/30 09:07:11;;;;;;;15.65;3.78;;;5.20;99.90;;;;;;5037433;28;20346;-66
2022/12/30 09:09:37;;;;;;;12.13;3.53;;;5.20;99.90;;;;;;5039839;28;20051;-65
2022/12/30 09:12:04;;;;;;;12.35;3.20;;;5.20;99.90;;;;;;5045763;28;20083;-66
2022/12/30 09:14:30;;;;;;;11.50;3.60;;;5.30;99.90;;;;;;5049439;28;20041;-65
2022/12/30 09:16:56;;;;;;;19.30;3.83;;;5.30;99.90;;;;;;5046367;28;20053;-68
2022/12/30 09:19:21;;;;;;;8.60;2.97;;;5.30;99.90;;;;;;5042980;28;20041;-66
2022/12/30 09:21:47;;;;;;;15.20;3.92;;;5.40;99.90;;;;;;5044856;28;20047;-66
2022/12/30 09:24:13;;;;;;;13.98;4.15;;;5.40;99.90;;;;;;5045703;28;20053;-66
2022/12/30 09:26:39;;;;;;;13.75;3.78;;;5.40;99.90;;;;;;5086197;28;20052;-66
2022/12/30 09:29:04;;;;;;;16.42;4.03;;;5.40;99.90;;;;;;5042149;28;20044;-66
2022/12/30 09:31:30;;;;;;;11.07;3.40;;;5.40;99.90;;;;;;5047965;28;20458;-67
2022/12/30 09:33:57;;;;;;;10.50;3.33;;;5.50;99.90;;;;;;5084267;28;20052;-66
2022/12/30 09:36:23;;;;;;;9.13;3.00;;;5.40;99.90;;;;;;5051630;28;20041;-65
2022/12/30 09:38:49;;;;;;;14.48;3.60;;;5.50;99.90;;;;;;5046449;28;20048;-66
2022/12/30 09:44:51;;;;;;;15.23;4.15;;;5.50;99.90;;;;;;5045794;28;20085;-66
2022/12/30 09:47:22;;;;;;;10.20;3.00;;;5.50;99.90;;;;;;5045792;28;20048;-67
2022/12/30 09:50:13;;;;;;;10.45;3.22;;;5.50;99.90;;;;;;5043140;28;20049;-71
2022/12/30 09:52:46;;;;;;;15.90;3.58;;;5.50;99.90;;;;;;5043484;28;20060;-70
2022/12/30 09:55:22;;;;;;;8.32;2.55;;;5.50;99.90;;;;;;5049180;28;20048;-68
2022/12/30 09:57:54;;;;;;;11.60;3.50;;;5.60;99.90;;;;;;5044701;28;20053;-67
2022/12/30 10:00:22;;;;;;;12.82;3.70;;;5.60;99.90;;;;;;5024821;28;20049;-67
2022/12/30 10:03:00;;;;;;;13.02;3.55;;;5.60;99.90;;;;;;5034249;28;20040;-65
2022/12/30 10:06:00;;;;;;;14.40;3.50;;;5.60;99.90;;;;;;5040174;28;20050;-65
2022/12/30 10:08:32;;;;;;;13.00;3.08;;;5.60;99.90;;;;;;5047421;28;20090;-66
2022/12/30 10:11:29;;;;;;;10.82;2.78;;;5.70;99.90;;;;;;5051880;28;20198;-66
2022/12/30 10:14:16;;;;;;;10.10;3.00;;;5.70;99.90;;;;;;5052946;28;20049;-66
2022/12/30 10:16:49;;;;;;;13.90;4.30;;;5.80;99.90;;;;;;5043048;28;20048;-65
2022/12/30 10:19:43;;;;;;;12.93;3.10;;;5.80;99.90;;;;;;5048364;28;20056;-69
2022/12/30 10:22:21;;;;;;;8.02;2.72;;;5.80;99.90;;;;;;5040694;28;20053;-65
2022/12/30 10:24:55;;;;;;;12.55;3.00;;;5.90;99.90;;;;;;5080229;28;20120;-66
2022/12/30 10:27:29;;;;;;;12.10;3.10;;;5.90;99.90;;;;;;5049605;28;20574;-66
2022/12/30 10:29:56;;;;;;;17.85;3.92;;;5.90;99.90;;;;;;5049978;28;20045;-67
2022/12/30 10:32:29;;;;;;;10.55;3.33;;;6.00;99.90;;;;;;5028986;28;20399;-65
2022/12/30 10:35:03;;;;;;;10.15;3.15;;;6.00;99.90;;;;;;5045626;28;20517;-67
2022/12/30 10:37:34;;;;;;;8.10;3.03;;;6.10;99.90;;;;;;5044592;28;20056;-66
2022/12/30 10:40:07;;;;;;;12.45;3.60;;;6.10;99.90;;;;;;5050490;28;20076;-66
2022/12/30 10:42:54;;;;;;;7.20;2.70;;;6.10;99.90;;;;;;5050105;28;20049;-65
2022/12/30 10:45:49;;;;;;;7.90;2.72;;;6.20;99.90;;;;;;5050936;28;20052;-65
2022/12/30 10:48:33;;;;;;;10.80;2.65;;;6.20;99.90;;;;;;5040061;28;20049;-66
2022/12/30 10:50:59;;;;;;;10.10;3.50;;;6.20;99.90;;;;;;5051896;28;20052;-65
2022/12/30 10:53:27;;;;;;;8.13;2.72;;;6.30;99.90;;;;;;5053709;28;20173;-65
2022/12/30 10:56:01;;;;;;;9.77;3.47;;;6.30;99.90;;;;;;5043213;28;20072;-66
2022/12/30 10:58:32;;;;;;;8.63;2.63;;;6.30;99.90;;;;;;5047695;28;20044;-66
2022/12/30 11:00:59;;;;;;;8.93;3.05;;;6.40;99.90;;;;;;5045594;28;20056;-65
2022/12/30 11:03:31;;;;;;;10.85;3.10;;;6.50;99.90;;;;;;5048378;28;20075;-64
2022/12/30 11:06:22;;;;;;;8.60;2.35;;;6.50;99.90;;;;;;5046692;28;20049;-67
2022/12/30 11:08:49;;;;;;;8.57;3.53;;;6.60;99.90;;;;;;5049567;28;20725;-65
2022/12/30 11:11:15;;;;;;;10.95;2.58;;;6.60;99.90;;;;;;5041842;28;20634;-69
2022/12/30 11:16:31;;;;;;;12.93;3.28;;;6.70;99.90;;;;;;5043622;28;20532;-64
2022/12/30 11:18:59;;;;;;;10.90;2.95;;;6.70;99.90;;;;;;5040792;28;20049;-66
2022/12/30 11:21:34;;;;;;;6.82;2.35;;;6.70;99.90;;;;;;5052517;28;20052;-69
2022/12/30 11:24:01;;;;;;;;;;;6.70;99.90;;;;;;5030595;28;20052;-65
2022/12/30 11:26:30;;;;;;;11.38;4.32;;;6.80;99.90;;;;;;5037663;28;19932;-66
2022/12/30 11:29:00;;;;;;;10.45;2.47;;;6.80;99.90;;;;;;5048378;28;20541;-66
2022/12/30 11:31:47;;;;;;;12.02;3.38;;;6.80;99.90;;;;;;5047829;28;20043;-65
2022/12/30 11:34:33;;;;;;;6.57;1.83;;;6.90;99.90;;;;;;5040198;28;20124;-65
2022/12/30 11:37:19;;;;;;;13.38;2.20;;;6.90;99.90;;;;;;5041751;28;20383;-65
2022/12/30 11:39:45;;;;;;;7.93;2.05;;;6.90;99.90;;;;;;5043025;28;20120;-65
2022/12/30 11:42:29;;;;;;;11.90;2.28;;;7.00;99.90;;;;;;5049776;28;20187;-64
2022/12/30 11:45:20;;;;;;;7.37;1.83;;;7.00;99.90;;;;;;5048100;28;20060;-67
2022/12/30 11:47:47;;;;;;;6.32;2.10;;;7.00;99.90;;;;;;5048289;28;20084;-67
2022/12/30 11:50:20;;;;;;;6.75;2.30;;;7.10;99.90;;;;;;5070361;28;20044;-65
2022/12/30 11:52:55;;;;;;;8.63;2.10;;;7.10;99.90;;;;;;5082306;28;20049;-67
2022/12/30 11:55:25;;;;;;;9.25;2.00;;;7.10;99.90;;;;;;5045891;28;20045;-71
2022/12/30 11:57:54;;;;;;;11.68;2.30;;;7.20;99.90;;;;;;5046517;28;20464;-64
2022/12/30 12:00:19;;;;;;;8.15;2.15;;;7.30;99.90;;;;;;5045103;28;20048;-64
2022/12/30 12:03:08;;;;;;;6.28;2.10;;;7.30;99.90;;;;;;5046138;28;20049;-68
2022/12/30 12:05:40;;;;;;;7.32;2.63;;;7.30;99.90;;;;;;5043689;28;20056;-65
2022/12/30 12:08:23;;;;;;;6.38;2.05;;;7.40;99.90;;;;;;5044439;28;20120;-68
2022/12/30 12:11:07;;;;;;;7.45;1.95;;;7.40;99.90;;;;;;5049175;28;20044;-67
2022/12/30 12:13:47;;;;;;;4.40;1.70;;;7.40;99.90;;;;;;5048424;28;20044;-66
2022/12/30 12:16:17;;;;;;;6.50;1.92;;;7.50;99.90;;;;;;5059668;28;20045;-66
2022/12/30 12:18:46;;;;;;;7.13;2.45;;;7.50;99.90;;;;;;5038791;28;20517;-65
2022/12/30 12:21:12;;;;;;;6.05;1.90;;;7.50;99.90;;;;;;5041973;28;20507;-65
2022/12/30 12:23:59;;;;;;;5.38;2.47;;;7.50;99.90;;;;;;5046005;28;20047;-66
2022/12/30 12:26:37;;;;;;;5.90;2.20;;;7.50;99.90;;;;;;5039980;28;20102;-77
2022/12/30 12:29:04;;;;;;;9.40;2.20;;;7.60;99.90;;;;;;5049793;28;20041;-65
2022/12/30 12:31:41;;;;;;;12.40;4.03;;;7.50;99.90;;;;;;5043969;28;20042;-66
2022/12/30 12:34:10;;;;;;;7.80;2.38;;;7.60;99.90;;;;;;5048626;28;20045;-65
2022/12/30 12:36:57;;;;;;;8.15;3.00;;;7.60;99.90;;;;;;5049290;28;20056;-63
2022/12/30 12:39:43;;;;;;;7.15;2.17;;;7.70;99.90;;;;;;5048016;28;20073;-64
2022/12/30 12:42:13;;;;;;;6.90;1.77;;;7.70;99.90;;;;;;5024509;28;20083;-65
2022/12/30 12:45:17;;;;;;;6.03;2.13;;;7.80;99.90;;;;;;5047902;28;20132;-65
2022/12/30 12:48:04;;;;;;;7.10;1.85;;;7.80;99.90;;;;;;5049172;28;20048;-65
2022/12/30 12:50:36;;;;;;;7.13;2.28;;;7.80;99.90;;;;;;5080228;28;20074;-66
2022/12/30 12:53:08;;;;;;;4.75;2.03;;;7.90;99.90;;;;;;5063928;28;20394;-65
2022/12/30 12:55:48;;;;;;;3.67;1.73;;;7.90;99.90;;;;;;5053865;28;20048;-65
2022/12/30 12:58:28;;;;;;;4.75;1.92;;;7.90;99.90;;;;;;5085044;28;20107;-65
2022/12/30 13:01:30;;;;;;;2.83;1.45;;;7.90;99.90;;;;;;5050187;28;20080;-67
2022/12/30 13:04:26;;;;;;;5.93;1.88;;;8.00;99.90;;;;;;5052078;28;20044;-66
2022/12/30 13:07:01;;;;;;;3.75;1.50;;;8.10;99.90;;;;;;5049000;28;20041;-66
2022/12/30 13:09:36;;;;;;;9.18;2.08;;;8.10;99.90;;;;;;5054282;28;20123;-68
2022/12/30 13:12:13;;;;;;;6.57;1.48;;;8.10;99.90;;;;;;5054129;28;20459;-67
2022/12/30 13:14:49;;;;;;;9.23;1.98;;;8.10;99.90;;;;;;5052296;28;20084;-69
2022/12/30 13:17:40;;;;;;;3.63;1.17;;;8.10;99.90;;;;;;5053734;28;20116;-68
2022/12/30 13:20:15;;;;;;;4.57;1.70;;;8.10;99.90;;;;;;5054077;28;20111;-68
2022/12/30 13:22:41;;;;;;;7.93;2.50;;;8.10;99.90;;;;;;5051787;28;20049;-73
2022/12/30 13:25:29;;;;;;;4.88;1.48;;;8.20;99.90;;;;;;5052752;28;20168;-69
2022/12/30 13:27:57;;;;;;;3.85;1.83;;;8.20;99.90;;;;;;5047179;28;20044;-68
2022/12/30 13:30:28;;;;;;;6.38;2.13;;;8.20;99.90;;;;;;5052743;28;20124;-69
2022/12/30 13:33:11;;;;;;;8.45;1.77;;;8.20;99.90;;;;;;5051687;28;20037;-67
2022/12/30 13:35:51;;;;;;;4.18;1.80;;;8.30;99.90;;;;;;5051777;28;20061;-67
2022/12/30 13:38:43;;;;;;;7.70;2.05;;;8.30;99.90;;;;;;5062387;28;20461;-67
2022/12/30 13:41:21;;;;;;;6.15;1.70;;;8.30;99.90;;;;;;5052829;28;20045;-68
2022/12/30 13:44:12;;;;;;;7.28;1.90;;;8.40;99.90;;;;;;5053037;28;20061;-67
2022/12/30 13:46:48;;;;;;;6.03;1.80;;;8.40;99.90;;;;;;5036348;28;20048;-67
2022/12/30 13:49:26;;;;;;;5.90;2.33;;;8.40;99.90;;;;;;5056378;28;20044;-65
2022/12/30 13:52:01;;;;;;;6.97;2.13;;;8.40;99.90;;;;;;5052908;28;20076;-65
2022/12/30 13:54:29;;;;;;;8.50;2.55;;;8.50;99.90;;;;;;5052586;28;20044;-65
2022/12/30 13:56:59;;;;;;;5.93;1.85;;;8.60;99.90;;;;;;5052697;28;20044;-65
2022/12/30 13:59:32;;;;;;;4.85;2.00;;;8.60;99.90;;;;;;5049766;28;20052;-66
2022/12/30 14:02:16;;;;;;;7.28;2.17;;;8.70;99.90;;;;;;5070968;28;20052;-68
2022/12/30 14:04:47;;;;;;;5.15;1.48;;;8.70;99.90;;;;;;5047621;28;20569;-65